Inta, Russia
Current Conditions -  °F | °C
As of 4:30 AM on Thursday 27 Nov 2014 (Local Time) from UUYY Reporting Station
Overcast Overcast  
Wind Chill: 19°   Ceiling: 3600
Heat Index: 19°   Visibility: 6mi
Dew Point: 16°   Wind: 2mph
Humidity: 86%   Direction: NA
Pressure: 30.36"   Gusts: NA
Location:  66.04°N, 60.17°E
Report Text: UUYY 270130Z VRB01MPS 9999 BKN036 OVC066 M07/M09 Q1028 NOSIG0119//51 RMK QFE761/1015
Loading
Personal Weather Stations






























Interactive Weather Map New forecast layout! Learn more

10-Day Weather Forecast

Advertisements
Track Severe Weather on mobile